Time;durP1;ratioP1;P1;durP2;ratioP2;P2;SDS_P1;SDS_P2;PMS_P1;PMS_P2;Temp;Humidity;BMP_temperature;BMP_pressure;BME280_temperature;BME280_humidity;BME280_pressure;Samples;Min_cycle;Max_cycle;Signal;HPM_P1;HPM_P2
2022/05/12 00:04:52;;;;;;;2.40;2.20;;;;;;;19.69;50.12;96531.59;10251149;29;20415;-48
2022/05/12 00:10:15;;;;;;;2.72;2.38;;;;;;;19.68;50.12;96535.41;10212494;29;20059;-48
2022/05/12 00:15:36;;;;;;;2.35;2.10;;;;;;;19.70;50.09;96530.50;10224750;29;20054;-48
2022/05/12 00:20:55;;;;;;;2.30;2.17;;;;;;;19.70;50.25;96533.19;10214612;29;20062;-47
2022/05/12 00:26:14;;;;;;;2.50;2.30;;;;;;;19.69;50.25;96532.38;10251579;29;20055;-47
2022/05/12 00:31:36;;;;;;;2.35;2.15;;;;;;;19.69;50.10;96531.59;10250990;29;20051;-47
2022/05/12 00:36:55;;;;;;;2.17;2.00;;;;;;;19.68;50.34;96530.81;10251021;29;20062;-47
2022/05/12 00:42:15;;;;;;;2.30;2.10;;;;;;;19.68;50.41;96524.59;10257026;28;20058;-48
2022/05/12 00:47:34;;;;;;;2.25;2.10;;;;;;;19.68;50.53;96530.81;10249950;29;20058;-48
2022/05/12 00:52:53;;;;;;;2.50;2.15;;;;;;;19.68;50.38;96527.28;10263273;28;20050;-48
2022/05/12 00:58:16;;;;;;;2.03;1.85;;;;;;;19.69;50.47;96526.19;10253158;28;20569;-47
2022/05/12 01:03:39;;;;;;;2.42;2.22;;;;;;;19.68;50.40;96532.69;10249172;29;20055;-47
2022/05/12 01:08:58;;;;;;;2.33;2.13;;;;;;;19.67;50.53;96542.72;10249783;29;20055;-48
2022/05/12 01:14:18;;;;;;;1.90;1.80;;;;;;;19.68;50.53;96532.69;10247813;28;20047;-48
2022/05/12 01:19:40;;;;;;;2.40;2.20;;;;;;;19.67;50.62;96531.91;10249638;29;20232;-47
2022/05/12 01:24:59;;;;;;;2.20;2.00;;;;;;;19.67;50.61;96534.63;10249381;29;20483;-47
2022/05/12 01:30:22;;;;;;;2.40;2.00;;;;;;;19.68;50.59;96535.41;10249089;29;20066;-47
2022/05/12 01:35:41;;;;;;;2.28;2.08;;;;;;;19.68;50.59;96535.41;10249226;29;20078;-47
2022/05/12 01:41:00;;;;;;;2.15;1.95;;;;;;;19.68;50.71;96530.81;10249068;28;20418;-47
2022/05/12 01:46:20;;;;;;;2.17;2.03;;;;;;;19.68;50.67;96527.28;10209474;29;20056;-47
2022/05/12 01:51:40;;;;;;;2.10;1.88;;;;;;;19.67;50.69;96533.84;10241173;29;20056;-48
2022/05/12 01:57:00;;;;;;;1.90;1.80;;;;;;;19.67;50.69;96531.13;10248343;29;20062;-47
2022/05/12 02:02:19;;;;;;;2.10;2.00;;;;;;;19.68;50.74;96527.28;10261171;28;20040;-47
2022/05/12 02:07:43;;;;;;;2.17;1.98;;;;;;;19.67;50.65;96529.22;10248569;29;20055;-48
2022/05/12 02:13:02;;;;;;;2.03;1.90;;;;;;;19.66;50.80;96535.75;10248065;29;20109;-47
2022/05/12 02:18:22;;;;;;;2.28;2.08;;;;;;;19.67;50.79;96528.44;10248416;29;20426;-48
2022/05/12 02:23:41;;;;;;;2.10;1.90;;;;;;;19.66;50.86;96538.47;10247389;28;20059;-47
2022/05/12 02:29:01;;;;;;;1.90;1.80;;;;;;;19.66;50.74;96535.75;10268601;28;20046;-47
2022/05/12 02:34:20;;;;;;;1.95;1.85;;;;;;;19.66;50.72;96534.94;10268388;28;20039;-48
2022/05/12 02:39:40;;;;;;;2.05;1.90;;;;;;;19.66;50.72;96534.94;10255523;29;20062;-48
2022/05/12 02:44:59;;;;;;;1.88;1.77;;;;;;;19.66;50.86;96538.47;10255052;29;20414;-48
2022/05/12 02:50:19;;;;;;;1.90;1.80;;;;;;;19.66;50.76;96526.84;10255104;29;20083;-48
2022/05/12 02:55:39;;;;;;;1.80;1.70;;;;;;;19.65;50.82;96536.09;10254438;29;20066;-47
2022/05/12 03:00:59;;;;;;;2.00;1.90;;;;;;;19.65;50.90;96541.50;10253893;29;20062;-48
2022/05/12 03:06:18;;;;;;;1.98;1.88;;;;;;;19.64;50.93;96546.13;10267038;28;20054;-47
2022/05/12 03:11:37;;;;;;;7.10;1.77;;;;;;;19.66;50.84;96549.28;10266880;28;20118;-47
2022/05/12 03:16:57;;;;;;;2.20;2.00;;;;;;;19.65;50.83;96539.56;10266672;28;20054;-47
2022/05/12 03:22:16;;;;;;;2.00;1.80;;;;;;;19.66;50.85;96543.06;10253548;29;20055;-47
2022/05/12 03:27:36;;;;;;;1.77;1.67;;;;;;;19.66;50.86;96540.34;10253694;29;20051;-48
2022/05/12 03:32:56;;;;;;;1.70;1.60;;;;;;;19.64;50.94;96540.72;10253455;29;20414;-47
2022/05/12 03:38:15;;;;;;;1.95;1.80;;;;;;;19.65;50.92;96547.69;10265929;28;20051;-48
2022/05/12 03:49:13;;;;;;;1.90;1.80;;;;;;;19.64;50.92;96558.81;10253063;29;20434;-47
2022/05/12 03:54:32;;;;;;;1.90;1.80;;;;;;;19.65;50.78;96565.81;10252590;29;20790;-47
2022/05/12 03:59:52;;;;;;;1.80;1.70;;;;;;;19.64;50.82;96569.63;10271580;28;20046;-48
2022/05/12 04:05:13;;;;;;;1.70;1.60;;;;;;;19.64;50.92;96573.13;10251965;28;20043;-47
2022/05/12 04:10:32;;;;;;;1.70;1.60;;;;;;;19.66;51.06;96591.69;10243555;28;20090;-48
2022/05/12 04:15:52;;;;;;;1.85;1.75;;;;;;;19.66;51.22;96589.00;10248822;28;20105;-48
2022/05/12 04:21:11;;;;;;;1.75;1.65;;;;;;;19.66;51.21;96595.22;10216667;29;20503;-48
2022/05/12 04:26:32;;;;;;;2.00;1.90;;;;;;;19.67;51.14;96601.41;10245217;28;20051;-48
2022/05/12 04:31:51;;;;;;;2.08;1.80;;;;;;;19.68;51.32;96600.25;10249852;29;20122;-47
2022/05/12 04:37:10;;;;;;;2.10;2.00;;;;;;;19.67;51.24;96598.69;10210930;29;20067;-48
2022/05/12 04:42:29;;;;;;;2.38;2.17;;;;;;;19.68;50.41;96611.06;10210638;29;20408;-48
2022/05/12 04:47:49;;;;;;;3.35;2.90;;;;;;;19.55;47.47;96623.75;10220559;28;20067;-48
2022/05/12 04:53:10;;;;;;;4.13;3.05;;;;;;;-146.19;100.00;65364.44;10216888;28;20052;-49
2022/05/12 04:58:29;;;;;;;3.17;2.88;;;;;;;-146.19;100.00;65364.44;10234003;28;20066;-48
2022/05/12 05:03:49;;;;;;;4.20;2.90;;;;;;;19.32;47.67;96640.22;10249574;29;20121;-47
2022/05/12 05:09:08;;;;;;;3.97;2.60;;;;;;;19.31;47.01;96651.38;10244648;28;20067;-47
2022/05/12 05:14:28;;;;;;;4.03;2.75;;;;;;;19.36;47.66;96664.69;10255782;28;20051;-48
2022/05/12 05:19:47;;;;;;;7.65;3.20;;;;;;;19.42;47.87;96663.38;10244321;28;20058;-48
2022/05/12 05:25:06;;;;;;;4.45;3.13;;;;;;;19.47;47.97;96663.19;10245619;29;20062;-47
2022/05/12 05:30:27;;;;;;;7.45;3.40;;;;;;;19.50;47.96;96681.47;10246252;29;20059;-49
2022/05/12 05:35:47;;;;;;;5.47;3.30;;;;;;;19.51;48.28;96674.94;10257956;28;20051;-48
2022/05/12 05:41:08;;;;;;;6.60;3.67;;;;;;;19.54;48.42;96687.00;10246176;28;20539;-48
2022/05/12 05:46:27;;;;;;;5.63;3.53;;;;;;;19.54;48.45;96697.78;10245485;29;20657;-49
2022/05/12 05:57:27;;;;;;;8.77;3.80;;;;;;;19.56;48.75;96712.59;10247216;29;20106;-48
2022/05/12 06:02:47;;;;;;;7.60;4.00;;;;;;;19.55;48.67;96711.00;10256892;29;20062;-47
2022/05/12 06:08:09;;;;;;;6.10;3.88;;;;;;;19.56;48.70;96715.28;10269324;28;20653;-48
2022/05/12 06:13:29;;;;;;;7.15;3.90;;;;;;;19.57;48.84;96716.06;10256172;28;20043;-47
2022/05/12 06:18:48;;;;;;;6.05;4.13;;;;;;;19.58;48.81;96725.75;10254676;29;20059;-48
2022/05/12 06:24:08;;;;;;;6.43;4.00;;;;;;;19.58;48.92;96725.75;10256106;29;20553;-48
2022/05/12 06:29:27;;;;;;;7.25;4.05;;;;;;;19.60;49.04;96738.94;10256018;29;20066;-48
2022/05/12 06:34:47;;;;;;;5.30;3.70;;;;;;;19.60;49.10;96733.53;10255462;29;20058;-49
2022/05/12 06:40:07;;;;;;;11.05;4.03;;;;;;;19.60;49.19;96741.63;10255529;28;20062;-48
2022/05/12 06:45:26;;;;;;;7.13;3.80;;;;;;;19.59;49.26;96742.78;10255378;29;20054;-47
2022/05/12 06:50:45;;;;;;;8.82;4.50;;;;;;;19.60;49.30;96750.56;10255137;29;20059;-48
2022/05/12 06:56:05;;;;;;;8.00;4.35;;;;;;;19.60;49.47;96753.25;10254521;29;20467;-47
2022/05/12 07:01:26;;;;;;;9.43;4.50;;;;;;;19.61;49.47;96756.75;10253474;29;20066;-48
2022/05/12 07:06:46;;;;;;;7.53;4.40;;;;;;;19.61;49.56;96767.56;10254690;29;20074;-48
2022/05/12 07:12:05;;;;;;;7.97;5.28;;;;;;;19.61;49.56;96771.06;10253102;28;20106;-48
2022/05/12 07:17:25;;;;;;;8.55;4.75;;;;;;;19.61;49.86;96767.56;10254102;29;20483;-50
2022/05/12 07:28:22;;;;;;;7.17;4.63;;;;;;;19.63;50.15;96784.25;10253687;29;20059;-48
2022/05/12 07:33:44;;;;;;;7.30;4.28;;;;;;;19.62;50.07;96790.75;10253590;29;20063;-48
2022/05/12 07:39:05;;;;;;;7.55;4.30;;;;;;;19.62;50.27;96802.38;10252684;29;20051;-48
2022/05/12 07:44:34;;;;;;;8.30;3.95;;;;;;;19.63;50.27;96797.75;10253326;28;20415;-50
2022/05/12 07:49:53;;;;;;;;;;;;;;;19.62;50.62;96813.19;10266190;28;20118;-50
2022/05/12 07:55:13;;;;;;;4.05;3.60;;;;;;;19.63;50.55;96805.88;10252385;29;19922;-50
2022/05/12 08:00:33;;;;;;;8.68;4.28;;;;;;;19.64;50.59;96815.53;10251327;29;20051;-51
2022/05/12 08:05:53;;;;;;;5.93;4.00;;;;;;;19.64;50.51;96820.94;10252375;28;20047;-50
2022/05/12 08:11:12;;;;;;;4.60;3.58;;;;;;;19.64;50.55;96827.16;10252098;29;20561;-50
2022/05/12 08:16:32;;;;;;;5.40;3.67;;;;;;;19.64;50.62;96845.25;10264736;28;20047;-50
2022/05/12 08:21:54;;;;;;;5.85;3.67;;;;;;;19.65;50.60;96839.53;10263391;28;20043;-51
2022/05/12 08:27:13;;;;;;;6.45;4.00;;;;;;;19.66;50.55;96856.53;10251440;29;20051;-50
2022/05/12 08:32:33;;;;;;;4.25;3.38;;;;;;;19.66;50.49;96859.25;10250437;29;20059;-50
2022/05/12 08:37:54;;;;;;;7.82;3.65;;;;;;;19.66;50.73;96849.25;10251253;29;20059;-51
2022/05/12 08:43:16;;;;;;;5.85;3.58;;;;;;;19.67;50.74;96860.84;10230942;29;20146;-50
2022/05/12 08:48:44;;;;;;;6.43;3.60;;;;;;;19.67;50.60;96860.84;10529097;27;20968;-48
2022/05/12 08:54:08;;;;;;;4.90;3.35;;;;;;;19.67;50.60;96863.56;10542099;28;20535;-48
2022/05/12 08:59:29;;;;;;;5.15;3.42;;;;;;;19.68;50.84;96875.94;10541890;28;20036;-48
2022/05/12 09:05:07;;;;;;;5.35;3.50;;;;;;;19.68;50.85;96867.81;10529093;28;20056;-49
2022/05/12 09:10:44;;;;;;;4.67;3.37;;;;;;;19.69;50.82;96872.13;10487101;28;20484;-48
2022/05/12 09:16:13;;;;;;;5.65;3.63;;;;;;;19.69;50.96;96883.72;10500203;28;20295;-49
2022/05/12 09:21:35;;;;;;;5.35;3.30;;;;;;;19.70;50.89;96887.25;10513261;28;20048;-49
2022/05/12 09:27:12;;;;;;;6.00;3.45;;;;;;;19.70;50.90;96898.84;10527408;28;20082;-49
2022/05/12 09:32:37;;;;;;;5.07;3.43;;;;;;;19.71;50.86;96895.03;10528089;28;20448;-49
2022/05/12 09:37:57;;;;;;;5.20;3.20;;;;;;;19.73;50.83;96894.72;10527223;28;20044;-49
2022/05/12 09:43:31;;;;;;;5.35;3.38;;;;;;;19.72;50.88;96903.97;10531453;28;20041;-49
2022/05/12 09:48:50;;;;;;;4.90;3.05;;;;;;;19.72;50.87;96898.56;10540948;28;20055;-49
2022/05/12 09:54:25;;;;;;;4.90;3.40;;;;;;;19.72;50.93;96903.97;10526379;28;20051;-49
2022/05/12 09:59:52;;;;;;;5.15;3.10;;;;;;;19.73;50.90;96900.13;10500284;28;20059;-48
2022/05/12 10:10:59;;;;;;;5.53;3.05;;;;;;;19.72;50.96;96893.16;10456358;28;20107;-49
2022/05/12 10:16:23;;;;;;;4.15;3.00;;;;;;;19.73;50.80;96892.00;10456107;28;20049;-49
2022/05/12 10:21:52;;;;;;;4.60;2.97;;;;;;;19.74;50.99;96899.81;10483671;28;20482;-49
2022/05/12 10:27:14;;;;;;;5.05;3.03;;;;;;;19.73;50.96;96892.00;10511422;28;20048;-49
2022/05/12 10:32:49;;;;;;;3.60;2.75;;;;;;;19.73;50.99;96900.13;10496834;28;20059;-49
2022/05/12 10:38:34;;;;;;;4.50;3.10;;;;;;;19.74;50.89;96907.13;10511113;28;20044;-49
2022/05/12 10:44:24;;;;;;;3.42;2.70;;;;;;;19.75;51.30;96900.59;10497882;28;20064;-49
2022/05/12 10:49:57;;;;;;;3.92;2.85;;;;;;;19.74;51.10;96902.50;10537514;28;20071;-51
2022/05/12 10:55:28;;;;;;;5.45;3.00;;;;;;;19.76;51.07;96910.31;10510560;28;20048;-48
2022/05/12 11:00:55;;;;;;;4.15;2.83;;;;;;;19.75;50.94;96900.59;10550419;28;20048;-48
2022/05/12 11:06:18;;;;;;;4.25;3.10;;;;;;;19.75;51.04;96904.09;10551947;28;20032;-51
2022/05/12 11:11:39;;;;;;;3.03;2.67;;;;;;;19.77;50.99;96911.88;10536333;28;20055;-49
2022/05/12 11:17:18;;;;;;;3.30;2.67;;;;;;;19.76;51.01;96918.41;10537027;28;20457;-49
2022/05/12 11:23:00;;;;;;;3.50;2.88;;;;;;;19.77;51.08;96911.09;10528907;28;20093;-48
2022/05/12 11:34:19;;;;;;;3.85;2.92;;;;;;;19.77;50.97;96911.88;10549910;28;20047;-49
2022/05/12 11:39:39;;;;;;;4.85;3.05;;;;;;;19.76;51.11;96910.31;10536950;28;20411;-48
2022/05/12 11:45:02;;;;;;;3.67;2.72;;;;;;;19.78;50.97;96910.78;10536330;28;20063;-48
2022/05/12 11:50:31;;;;;;;4.25;2.72;;;;;;;19.79;51.11;96909.66;10536450;28;20490;-49
2022/05/12 11:56:03;;;;;;;3.83;2.72;;;;;;;19.79;51.07;96908.84;10535472;28;20055;-49
2022/05/12 12:01:24;;;;;;;2.92;2.60;;;;;;;19.79;51.09;96909.66;10548864;28;20048;-49
2022/05/12 12:06:53;;;;;;;2.80;2.47;;;;;;;19.80;51.02;96897.72;10535715;28;20055;-49
2022/05/12 12:12:45;;;;;;;3.35;2.75;;;;;;;19.81;51.20;96912.81;10535817;28;20414;-48
2022/05/12 12:18:21;;;;;;;3.33;2.53;;;;;;;19.81;50.95;96912.03;10535810;28;20879;-49
2022/05/12 12:24:15;;;;;;;3.58;2.45;;;;;;;19.81;51.19;96912.81;10534652;28;20059;-49
2022/05/12 12:29:43;;;;;;;2.88;2.40;;;;;;;19.81;51.13;96918.22;10532129;28;20517;-49
2022/05/12 12:35:24;;;;;;;3.53;2.55;;;;;;;19.81;51.21;96909.31;10534191;28;20052;-49
2022/05/12 12:40:44;;;;;;;3.92;2.40;;;;;;;19.81;51.09;96915.53;10535068;28;20056;-49
2022/05/12 12:46:26;;;;;;;3.75;2.65;;;;;;;19.82;51.12;96917.13;10533414;28;20063;-49
2022/05/12 12:51:57;;;;;;;2.72;2.28;;;;;;;19.83;51.08;96920.63;10533973;28;20522;-49
2022/05/12 12:57:21;;;;;;;2.53;2.33;;;;;;;19.82;51.09;96919.81;10533792;28;20048;-48
2022/05/12 13:02:44;;;;;;;3.42;2.30;;;;;;;19.83;51.08;96918.69;10548036;28;20043;-48
2022/05/12 13:08:20;;;;;;;2.88;2.38;;;;;;;19.84;51.13;96904.06;10547766;28;20040;-50
2022/05/12 13:13:48;;;;;;;3.20;2.53;;;;;;;19.85;51.12;96911.06;10534547;28;20055;-48
2022/05/12 13:19:09;;;;;;;3.50;2.58;;;;;;;19.85;51.37;96915.69;10534318;28;20056;-49
2022/05/12 13:24:31;;;;;;;2.42;2.20;;;;;;;19.86;51.24;96920.75;10518891;28;20048;-49
2022/05/12 13:29:51;;;;;;;4.13;2.25;;;;;;;19.87;51.48;96908.81;10518806;28;20059;-49
2022/05/12 13:35:19;;;;;;;2.58;2.38;;;;;;;19.87;51.27;96898.00;10541491;28;20055;-49
2022/05/12 13:40:51;;;;;;;2.97;2.17;;;;;;;19.89;51.38;96903.09;10541591;28;20464;-49
2022/05/12 13:46:21;;;;;;;2.50;2.20;;;;;;;19.89;51.40;96897.69;10541127;28;20055;-48
2022/05/12 13:51:45;;;;;;;2.28;2.08;;;;;;;19.89;51.42;96898.47;10541601;28;20620;-49
2022/05/12 13:57:32;;;;;;;3.63;2.17;;;;;;;19.89;51.47;96893.06;10540924;28;20047;-49
2022/05/12 14:02:55;;;;;;;2.28;2.00;;;;;;;19.90;51.49;96889.25;10554466;28;20039;-48
2022/05/12 14:08:22;;;;;;;2.50;2.13;;;;;;;19.90;51.40;96875.75;10540290;28;20044;-49
2022/05/12 14:19:25;;;;;;;3.80;2.30;;;;;;;19.91;51.53;96873.81;10540251;28;20059;-49
2022/05/12 14:24:47;;;;;;;2.40;1.80;;;;;;;19.91;51.65;96868.41;10539609;28;20056;-49
2022/05/12 14:30:09;;;;;;;2.35;2.03;;;;;;;19.91;51.48;96863.78;10553508;28;20624;-49
2022/05/12 14:35:29;;;;;;;2.58;2.20;;;;;;;19.91;51.56;96866.50;10539403;28;20395;-49
2022/05/12 14:40:48;;;;;;;2.30;2.05;;;;;;;19.92;51.36;96865.38;10539134;28;20410;-49
2022/05/12 14:46:09;;;;;;;3.00;2.30;;;;;;;19.93;51.49;96856.19;10538489;28;20044;-48
2022/05/12 14:51:28;;;;;;;2.08;1.88;;;;;;;19.94;51.59;96873.97;10552281;28;20044;-49
2022/05/12 14:56:48;;;;;;;2.38;2.17;;;;;;;19.98;51.58;96851.69;10552097;28;20052;-49
2022/05/12 15:02:10;;;;;;;2.17;1.92;;;;;;;20.01;51.47;96862.63;10537197;28;20051;-49
2022/05/12 15:07:31;;;;;;;2.47;2.25;;;;;;;20.03;51.57;96875.84;10522680;28;20063;-49
2022/05/12 15:12:50;;;;;;;2.75;2.05;;;;;;;20.02;51.56;96869.66;10538055;28;20056;-49
2022/05/12 15:18:10;;;;;;;2.33;2.10;;;;;;;20.02;51.57;96858.81;10538056;28;20517;-49
2022/05/12 15:23:30;;;;;;;2.08;1.90;;;;;;;20.05;51.59;96868.19;10522414;28;20055;-49
2022/05/12 15:28:49;;;;;;;2.15;1.88;;;;;;;20.08;51.64;96859.44;10537328;28;20058;-49
2022/05/12 15:34:09;;;;;;;2.38;2.00;;;;;;;20.09;51.58;96861.81;10541999;28;20036;-49
2022/05/12 15:39:28;;;;;;;2.28;2.08;;;;;;;20.06;51.58;96854.34;10536880;28;20052;-49
2022/05/12 15:44:49;;;;;;;2.45;1.90;;;;;;;20.05;51.81;96846.56;10536448;28;20066;-49
2022/05/12 15:50:17;;;;;;;2.05;1.88;;;;;;;20.04;51.53;96850.41;10536674;28;20056;-49
2022/05/12 15:55:37;;;;;;;2.28;1.90;;;;;;;20.05;51.55;96846.56;10534208;28;20406;-49
2022/05/12 16:00:57;;;;;;;2.45;1.80;;;;;;;20.04;51.65;96845.78;10548918;28;20047;-49
2022/05/12 16:06:18;;;;;;;2.47;1.88;;;;;;;20.05;51.62;96841.97;10520009;28;20051;-49
2022/05/12 16:17:08;;;;;;;2.15;1.95;;;;;;;20.08;51.53;96851.31;10521834;28;20055;-49
2022/05/12 16:22:27;;;;;;;1.90;1.70;;;;;;;20.10;51.62;96849.09;10535442;28;20062;-52
2022/05/12 16:27:51;;;;;;;1.83;1.70;;;;;;;20.10;51.56;96843.69;10534938;28;20620;-49
2022/05/12 16:33:10;;;;;;;1.92;1.75;;;;;;;20.10;51.66;96835.56;10533518;28;20051;-49
2022/05/12 16:38:30;;;;;;;1.70;1.60;;;;;;;20.08;51.53;96844.00;10548601;28;20486;-49
2022/05/12 16:43:51;;;;;;;1.83;1.55;;;;;;;20.08;51.57;96840.50;10534770;28;20063;-48
2022/05/12 16:49:20;;;;;;;1.60;1.50;;;;;;;20.08;51.57;96833.19;10534983;28;20047;-49
2022/05/12 16:54:40;;;;;;;2.13;1.92;;;;;;;20.09;51.52;96836.66;10534179;28;20059;-49
2022/05/12 17:00:00;;;;;;;1.90;1.65;;;;;;;20.08;51.47;96835.88;10533572;28;20056;-50
2022/05/12 17:05:19;;;;;;;1.80;1.50;;;;;;;20.08;51.28;96841.28;10533778;28;20549;-49
2022/05/12 17:10:39;;;;;;;3.40;1.30;;;;;;;20.09;50.38;96833.97;10548226;28;20062;-50
2022/05/12 17:15:58;;;;;;;2.22;1.40;;;;;;;-146.19;100.00;65364.44;10498180;28;20446;-50
2022/05/12 17:21:17;;;;;;;4.53;1.20;;;;;;;-146.19;100.00;65364.44;10525220;28;20054;-49
2022/05/12 17:26:37;;;;;;;1.80;1.20;;;;;;;-146.19;100.00;65364.44;10534110;28;20505;-50
2022/05/12 17:31:56;;;;;;;2.17;1.00;;;;;;;-146.19;100.00;65364.44;10542073;28;20437;-50
2022/05/12 17:37:15;;;;;;;3.47;1.10;;;;;;;-146.19;100.00;65364.44;10515200;28;20418;-50
2022/05/12 17:42:35;;;;;;;1.23;0.90;;;;;;;-146.19;100.00;65364.44;10504815;28;20044;-49
2022/05/12 17:47:55;;;;;;;1.13;0.98;;;;;;;-146.19;100.00;65364.44;10498615;28;20087;-50
2022/05/12 17:53:14;;;;;;;2.28;1.10;;;;;;;-146.19;100.00;65364.44;10518388;28;20049;-49
2022/05/12 17:58:35;;;;;;;3.65;1.08;;;;;;;-146.19;100.00;65364.44;10530935;28;20048;-49
2022/05/12 18:03:55;;;;;;;2.70;0.90;;;;;;;-146.19;100.00;65364.44;10540284;28;20548;-49
2022/05/12 18:09:15;;;;;;;4.13;1.00;;;;;;;-146.19;100.00;65364.44;10539810;28;20410;-49
2022/05/12 18:14:36;;;;;;;3.42;1.20;;;;;;;-146.19;100.00;65364.44;10581919;28;20054;-49
2022/05/12 18:19:57;;;;;;;2.22;1.00;;;;;;;-146.19;100.00;65364.44;10581187;28;20060;-49
2022/05/12 18:25:17;;;;;;;2.08;1.13;;;;;;;-146.19;100.00;65364.44;10536670;28;20548;-49
2022/05/12 18:30:36;;;;;;;1.00;0.85;;;;;;;-146.19;100.00;65364.44;10539448;28;20051;-49
2022/05/12 18:35:56;;;;;;;1.50;1.08;;;;;;;-146.19;100.00;65364.44;10539070;28;20692;-48
2022/05/12 18:41:16;;;;;;;1.10;1.00;;;;;;;-146.19;100.00;65364.44;10538740;28;20056;-50
2022/05/12 18:46:37;;;;;;;3.28;0.98;;;;;;;-146.19;100.00;65364.44;10538572;28;20110;-49
2022/05/12 18:51:56;;;;;;;1.88;1.00;;;;;;;-146.19;100.00;65364.44;10538936;28;20067;-49
2022/05/12 18:57:16;;;;;;;1.83;0.95;;;;;;;-146.19;100.00;65364.44;10530369;28;20052;-51
2022/05/12 19:02:36;;;;;;;2.45;1.13;;;;;;;-146.19;100.00;65364.44;10551992;28;20051;-49
2022/05/12 19:07:55;;;;;;;1.67;1.00;;;;;;;-146.19;100.00;65364.44;10537878;28;20052;-49
2022/05/12 19:13:15;;;;;;;2.40;1.30;;;;;;;-146.19;100.00;65364.44;10538246;28;20127;-49
2022/05/12 19:18:34;;;;;;;3.20;1.00;;;;;;;-146.19;100.00;65364.44;10537780;28;20052;-49
2022/05/12 19:23:54;;;;;;;1.13;1.00;;;;;;;-146.19;100.00;65364.44;10550933;28;20036;-49
2022/05/12 19:29:13;;;;;;;1.92;1.00;;;;;;;-146.19;100.00;65364.44;10549914;28;20051;-49
2022/05/12 19:34:33;;;;;;;1.50;1.10;;;;;;;-146.19;100.00;65364.44;10537234;28;20044;-49
2022/05/12 19:39:54;;;;;;;1.33;0.80;;;;;;;-146.19;100.00;65364.44;10550292;28;20055;-49
2022/05/12 19:45:15;;;;;;;1.02;0.80;;;;;;;-146.19;100.00;65364.44;10536509;28;20083;-49
2022/05/12 19:50:34;;;;;;;1.30;0.88;;;;;;;-146.19;100.00;65364.44;10549932;28;20097;-49
2022/05/12 19:55:54;;;;;;;1.20;0.90;;;;;;;-146.19;100.00;65364.44;10536327;28;20052;-49
2022/05/12 20:01:13;;;;;;;0.73;0.73;;;;;;;-146.19;100.00;65364.44;10549022;28;20040;-49
2022/05/12 20:06:33;;;;;;;1.15;0.90;;;;;;;-146.19;100.00;65364.44;10535756;28;20040;-48
2022/05/12 20:11:53;;;;;;;1.00;0.90;;;;;;;-146.19;100.00;65364.44;10535496;28;20416;-48
2022/05/12 20:17:12;;;;;;;2.00;0.90;;;;;;;-146.19;100.00;65364.44;10535481;28;20140;-49
2022/05/12 20:22:32;;;;;;;0.80;0.80;;;;;;;-146.19;100.00;65364.44;10535630;28;20044;-49
2022/05/12 20:27:51;;;;;;;1.50;0.90;;;;;;;-146.19;100.00;65364.44;10535162;28;20045;-49
2022/05/12 20:33:11;;;;;;;0.95;0.90;;;;;;;-146.19;100.00;65364.44;10535134;28;20469;-49
2022/05/12 20:38:30;;;;;;;0.95;0.90;;;;;;;-146.19;100.00;65364.44;10534888;28;20449;-49
2022/05/12 20:43:50;;;;;;;0.80;0.80;;;;;;;-146.19;100.00;65364.44;10534334;28;20052;-49
2022/05/12 20:49:11;;;;;;;0.85;0.80;;;;;;;-146.19;100.00;65364.44;10544364;28;20044;-49
2022/05/12 20:54:31;;;;;;;0.85;0.80;;;;;;;-146.19;100.00;65364.44;10534466;28;20074;-49
2022/05/12 20:59:51;;;;;;;1.00;0.90;;;;;;;-146.19;100.00;65364.44;10547154;28;20040;-49
2022/05/12 21:05:10;;;;;;;0.90;0.70;;;;;;;-146.19;100.00;65364.44;10534111;28;20509;-49
2022/05/12 21:10:30;;;;;;;1.58;0.75;;;;;;;-146.19;100.00;65364.44;10526645;28;20076;-49
2022/05/12 21:15:50;;;;;;;1.00;0.90;;;;;;;-146.19;100.00;65364.44;10547783;28;20052;-50
2022/05/12 21:21:09;;;;;;;0.93;0.90;;;;;;;-146.19;100.00;65364.44;10533448;28;20070;-49
2022/05/12 21:26:28;;;;;;;1.60;0.98;;;;;;;-146.19;100.00;65364.44;10547264;28;20047;-49
2022/05/12 21:31:48;;;;;;;0.95;0.82;;;;;;;-146.19;100.00;65364.44;10533973;28;20055;-49
2022/05/12 21:37:07;;;;;;;0.88;0.80;;;;;;;-146.19;100.00;65364.44;10533167;28;20059;-49
2022/05/12 21:42:26;;;;;;;1.05;0.80;;;;;;;-146.19;100.00;65364.44;10533735;28;20510;-49
2022/05/12 21:47:45;;;;;;;1.95;0.80;;;;;;;-146.19;100.00;65364.44;10533096;28;20052;-49
2022/05/12 21:53:05;;;;;;;0.80;0.80;;;;;;;-146.19;100.00;65364.44;10535778;28;20444;-49
2022/05/12 22:04:15;;;;;;;0.77;0.70;;;;;;;-146.19;100.00;65364.44;10554328;28;20051;-49
2022/05/12 22:09:37;;;;;;;0.70;0.70;;;;;;;-146.19;100.00;65364.44;10540503;28;20044;-50
2022/05/12 22:14:57;;;;;;;0.73;0.73;;;;;;;-146.19;100.00;65364.44;10540367;28;20609;-49
2022/05/12 22:20:16;;;;;;;0.68;0.60;;;;;;;-146.19;100.00;65364.44;10540307;28;20102;-49
2022/05/12 22:25:36;;;;;;;0.73;0.73;;;;;;;-146.19;100.00;65364.44;10517341;28;20055;-49
2022/05/12 22:30:55;;;;;;;0.68;0.68;;;;;;;-146.19;100.00;65364.44;10539161;28;20056;-48
2022/05/12 22:36:15;;;;;;;0.73;0.70;;;;;;;-146.19;100.00;65364.44;10553000;28;20055;-49
2022/05/12 22:41:36;;;;;;;0.75;0.70;;;;;;;-146.19;100.00;65364.44;10539491;28;20101;-49
2022/05/12 22:46:56;;;;;;;0.70;0.70;;;;;;;-146.19;100.00;65364.44;10543365;28;20052;-49
2022/05/12 22:52:15;;;;;;;0.70;0.70;;;;;;;-146.19;100.00;65364.44;10539033;28;20059;-49
2022/05/12 22:57:35;;;;;;;0.55;0.55;;;;;;;-146.19;100.00;65364.44;10538112;28;20089;-49
2022/05/12 23:02:54;;;;;;;0.70;0.70;;;;;;;-146.19;100.00;65364.44;10534808;28;20052;-49
2022/05/12 23:08:14;;;;;;;0.70;0.70;;;;;;;-146.19;100.00;65364.44;10512860;28;20051;-49
2022/05/12 23:13:33;;;;;;;0.70;0.70;;;;;;;-146.19;100.00;65364.44;10538231;28;20056;-49
2022/05/12 23:24:36;;;;;;;0.80;0.80;;;;;;;-146.19;100.00;65364.44;10550997;28;20036;-49
2022/05/12 23:29:56;;;;;;;0.70;0.70;;;;;;;-146.19;100.00;65364.44;10551029;28;20051;-49
2022/05/12 23:35:16;;;;;;;0.60;0.60;;;;;;;-146.19;100.00;65364.44;10537176;28;20376;-49
2022/05/12 23:40:35;;;;;;;0.95;0.65;;;;;;;-146.19;100.00;65364.44;10536962;28;20047;-49
2022/05/12 23:45:54;;;;;;;0.80;0.80;;;;;;;-146.19;100.00;65364.44;10543850;28;20059;-49
2022/05/12 23:51:14;;;;;;;0.73;0.73;;;;;;;-146.19;100.00;65364.44;10536085;28;20052;-49
2022/05/12 23:56:34;;;;;;;0.60;0.60;;;;;;;-146.19;100.00;65364.44;10528436;28;20048;-49
